Latest Weather Observations for Willis Island

IDQ60801

Issued at 2:02 pm EST Saturday 28 March 2015 (issued every 30 minutes, with the page automatically refreshed every 10 minutes)

About weather observations | Map of weather stations | Latest weather observations for QLD | Other Formats
Station Details ID: 200283 Name: WILLIS ISLAND Lat: -16.29 Lon: 149.97 Height: 9.29 m
Data from the previous 72 hours. | See also: Recent months at Willis Island
Date/Time
EST
Temp
°C
App
Temp
°C
Dew
Point
Rel
Hum
%
Delta-T
°C
Wind Press
QNH
hPa
Press
MSL
hPa
Rain
since 9 am
mm
Dir
 
Spd
km/h
Gust
km/h
Spd
kts
Gust
kts
28/02:00pm 29.3 29.0 23.3 70 4.1 SE 30 33 16 18 1012.1 - 0.0
28/01:30pm 29.4 30.0 23.4 70 4.1 SE 26 33 14 18 1012.4 - 0.0
28/01:00pm 29.7 29.9 23.5 69 4.3 SE 28 32 15 17 1012.8 - 0.0
28/12:30pm 29.8 30.0 23.4 68 4.4 SE 28 33 15 18 1013.2 - 0.0
28/12:00pm 29.7 30.7 24.1 72 3.9 SE 26 30 14 16 1013.8 1013.8 0.0
28/11:30am 29.3 29.9 23.5 71 4.0 SE 26 32 14 17 1014.2 - 0.0
28/11:00am 29.5 29.9 23.7 71 4.0 SE 28 32 15 17 1014.4 - 0.0
28/10:30am 29.2 29.6 23.2 70 4.1 ESE 26 30 14 16 1014.7 - 0.0
28/10:00am 29.2 29.6 23.1 69 4.2 SE 26 32 14 17 1015.0 - 0.0
28/09:30am 29.2 29.8 23.4 71 4.0 SE 26 30 14 16 1015.1 - 0.0
28/09:00am 28.9 29.2 23.0 70 4.0 ESE 26 30 14 16 1015.0 1015.0 0.4
28/08:30am 28.2 28.8 22.8 72 3.7 SE 24 28 13 15 1014.9 - 0.4
28/08:00am 27.6 27.9 22.3 73 3.6 SE 24 28 13 15 1014.8 - 0.4
28/07:30am 27.8 28.3 22.0 70 3.9 SE 22 26 12 14 1014.4 - 0.4
28/07:00am 26.9 27.4 22.6 77 2.9 SE 24 28 13 15 1014.2 - 0.4
28/06:30am 26.8 27.0 22.7 78 2.8 ESE 26 30 14 16 1013.8 - 0.4
28/06:00am 26.6 26.2 22.3 77 2.9 SE 28 30 15 16 1013.4 1013.4 0.4
28/05:30am 26.5 26.6 22.5 78 2.7 SSE 26 32 14 17 1013.1 - 0.4
28/05:00am 26.5 25.9 22.0 76 3.0 SE 28 32 15 17 1012.9 - 0.4
28/04:30am 26.4 26.1 21.9 76 3.0 SE 26 30 14 16 1012.8 - 0.4
28/04:00am 26.5 26.2 21.1 72 3.6 SE 24 30 13 16 1012.6 - 0.4
28/03:30am 26.5 25.7 21.7 75 3.2 SE 28 33 15 18 1012.6 - 0.4
28/03:00am 26.4 25.2 20.9 72 3.6 SE 28 32 15 17 1012.7 1012.7 0.4
28/02:30am 26.5 25.6 20.7 70 3.8 SE 26 30 14 16 1012.9 - 0.4
28/02:00am 26.5 25.6 21.5 74 3.3 SE 28 32 15 17 1012.9 - 0.4
28/01:30am 26.7 25.6 21.1 71 3.7 SE 28 32 15 17 1013.2 - 0.4
28/01:00am 26.6 25.5 21.0 71 3.7 SE 28 32 15 17 1013.5 - 0.4
28/12:30am 26.7 25.6 21.1 71 3.7 SE 28 32 15 17 1013.9 - 0.4
28/12:00am 26.8 26.0 21.7 73 3.4 SSE 28 33 15 18 1014.2 1014.2 0.4
 
Date/Time
EST
Temp
°C
App
Temp
°C
Dew
Point
Rel
Hum
%
Delta-T
°C
Wind Press
QNH
hPa
Press
MSL
hPa
Rain
since 9 am
mm
Dir
 
Spd
km/h
Gust
km/h
Spd
kts
Gust
kts
27/11:30pm 26.8 25.6 21.5 72 3.5 SSE 30 37 16 20 1014.5 - 0.4
27/11:00pm 26.9 26.0 22.1 75 3.2 SE 30 35 16 19 1014.7 - 0.4
27/10:30pm 27.0 25.3 21.4 71 3.7 SE 32 35 17 19 1014.9 - 0.4
27/10:00pm 27.0 26.1 22.1 74 3.3 SE 30 33 16 18 1015.0 - 0.4
27/09:30pm 26.9 27.2 22.9 79 2.7 SE 26 32 14 17 1014.7 - 0.4
27/09:00pm 26.9 26.0 22.1 75 3.2 ESE 30 33 16 18 1014.6 1014.6 0.4
27/08:30pm 26.9 25.8 21.7 73 3.5 SE 30 33 16 18 1014.7 - 0.4
27/08:00pm 26.9 25.8 21.7 73 3.5 SE 30 33 16 18 1014.4 - 0.4
27/07:30pm 27.0 26.5 22.1 74 3.3 SE 28 32 15 17 1014.2 - 0.4
27/07:00pm 27.1 25.7 21.2 70 3.9 SE 30 33 16 18 1013.9 - 0.4
27/06:30pm 27.0 26.5 22.2 75 3.2 SE 28 32 15 17 1013.5 - 0.4
27/06:00pm 27.1 27.2 22.5 76 3.1 SE 26 30 14 16 1013.1 1013.1 0.4
27/05:30pm 27.4 27.2 22.0 72 3.6 SE 26 32 14 17 1012.7 - 0.4
27/05:00pm 27.9 27.6 22.6 73 3.6 SE 28 33 15 18 1012.3 - 0.4
27/04:30pm 28.2 27.8 22.4 71 3.9 SE 28 32 15 17 1012.0 - 0.4
27/04:00pm 28.4 28.2 22.7 71 3.9 ESE 28 33 15 18 1011.7 - 0.4
27/03:30pm 28.8 27.7 21.8 66 4.7 ESE 30 33 16 18 1011.7 - 0.4
27/03:00pm 29.2 28.6 22.7 68 4.4 ESE 30 33 16 18 1011.8 1011.8 0.4
27/02:30pm 29.4 28.2 22.2 65 4.9 ESE 32 35 17 19 1011.9 - 0.4
27/02:00pm 29.2 28.7 23.5 71 3.9 ESE 32 35 17 19 1012.0 - 0.4
27/01:30pm 29.5 30.0 24.0 72 3.8 ESE 28 35 15 19 1012.4 - 0.4
27/01:00pm 29.8 30.4 24.2 72 3.9 ESE 28 33 15 18 1012.8 - 0.4
27/12:30pm 29.5 29.3 23.4 69 4.2 ESE 30 33 16 18 1013.4 - 0.4
27/12:00pm 29.5 29.5 23.7 71 4.0 ESE 30 35 16 19 1014.1 1014.1 0.4
27/11:30am 29.2 28.6 23.4 71 4.0 ESE 32 35 17 19 1014.7 - 0.4
27/11:00am 29.0 29.0 23.0 70 4.1 ESE 28 35 15 19 1015.2 - 0.2
27/10:30am 27.8 29.8 23.6 78 2.9 SE 19 22 10 12 1015.6 - 0.2
27/10:00am 26.8 28.4 22.2 76 3.1 ESE 17 20 9 11 1015.8 - 0.2
27/09:30am 24.8 22.8 21.8 83 2.0 E 35 43 19 23 1016.0 - 0.2
27/09:15am 23.8 21.6 21.5 87 1.5 E 35 41 19 22 1016.5 - 0.2
27/09:07am 26.1 23.0 22.7 81 2.3 SE 43 52 23 28 1016.4 - 0.0
27/09:00am 26.8 26.1 23.6 82 2.2 SSE 33 39 18 21 1016.2 1016.2 0.2
27/08:30am 27.1 27.4 23.6 81 2.4 SSE 28 33 15 18 1016.0 - 0.2
27/08:00am 27.5 28.2 24.3 83 2.2 S 28 30 15 16 1015.7 - 0.2
27/07:30am 27.6 27.1 22.9 75 3.2 SE 30 33 16 18 1015.5 - 0.2
27/07:00am 26.8 28.0 22.5 77 2.9 SE 20 24 11 13 1015.1 - 0.2
27/06:30am 26.5 26.4 21.4 73 3.4 SE 24 28 13 15 1014.8 - 0.2
27/06:00am 25.9 25.1 22.3 80 2.4 E 30 33 16 18 1014.5 1014.5 0.2
27/05:30am 26.2 24.8 22.2 78 2.7 E 33 37 18 20 1014.2 - 0.2
27/05:00am 25.9 24.1 23.6 87 1.6 E 39 46 21 25 1014.1 - 0.2
27/04:56am 26.0 24.4 24.0 89 1.4 E 39 43 21 23 1014.1 - 0.2
27/04:33am 26.5 25.6 22.8 80 2.5 SE 32 50 17 27 1013.8 - 0.0
27/04:30am 26.9 27.3 23.7 82 2.2 SE 28 33 15 18 1013.8 - 0.0
27/04:00am 26.8 27.3 23.3 81 2.4 ESE 26 30 14 16 1013.6 - 0.0
27/03:30am 26.8 27.9 23.6 82 2.2 SE 24 28 13 15 1013.5 - 0.0
27/03:00am 26.9 28.1 23.8 83 2.1 ESE 24 30 13 16 1013.6 1013.6 0.0
27/02:30am 26.8 28.0 23.9 84 2.0 SE 24 28 13 15 1013.8 - 0.0
27/02:00am 26.6 28.1 24.3 87 1.6 SE 24 30 13 16 1014.0 - 0.0
27/01:30am 26.9 27.8 24.0 84 2.0 SE 26 30 14 16 1014.2 - 0.0
27/01:00am 27.0 28.2 23.8 82 2.2 SE 24 28 13 15 1014.4 - 0.0
27/12:30am 27.1 28.0 23.3 80 2.6 SE 24 30 13 16 1014.5 - 0.0
27/12:00am 27.2 27.9 23.7 81 2.4 SE 26 32 14 17 1014.7 1014.7 0.0
 
Date/Time
EST
Temp
°C
App
Temp
°C
Dew
Point
Rel
Hum
%
Delta-T
°C
Wind Press
QNH
hPa
Press
MSL
hPa
Rain
since 9 am
mm
Dir
 
Spd
km/h
Gust
km/h
Spd
kts
Gust
kts
26/11:30pm 27.2 27.7 23.9 82 2.3 SE 28 33 15 18 1014.9 - 0.0
26/11:00pm 27.1 27.5 23.7 81 2.3 SE 28 33 15 18 1014.9 - 0.0
26/10:30pm 27.2 27.7 23.9 82 2.3 SE 28 33 15 18 1015.0 - 0.0
26/10:00pm 27.1 27.8 23.6 81 2.4 SE 26 30 14 16 1015.0 - 0.0
26/09:30pm 27.1 27.8 23.6 81 2.4 SE 26 28 14 15 1015.0 - 0.0
26/09:00pm 27.1 27.8 23.7 81 2.3 SE 26 32 14 17 1015.0 1015.0 0.0
26/08:30pm 27.2 27.4 23.4 80 2.6 SE 28 32 15 17 1014.9 - 0.0
26/08:00pm 27.2 27.4 23.5 80 2.5 SE 28 32 15 17 1014.7 - 0.0
26/07:30pm 27.1 27.6 23.3 80 2.6 SE 26 30 14 16 1014.4 - 0.0
26/07:00pm 27.2 27.6 23.1 78 2.8 SE 26 30 14 16 1014.1 - 0.0
26/06:30pm 27.1 27.8 23.0 78 2.8 SE 24 28 13 15 1013.9 - 0.0
26/06:00pm 27.3 27.6 23.0 77 2.9 SE 26 28 14 15 1013.6 1013.6 0.0
26/05:30pm 27.6 28.3 22.9 75 3.2 SE 24 30 13 16 1013.2 - 0.0
26/05:00pm 28.1 28.7 23.4 75 3.2 SE 26 30 14 16 1012.8 - 0.0
26/04:30pm 27.8 28.3 23.3 76 3.1 SE 26 30 14 16 1012.6 - 0.0
26/04:00pm 28.9 29.8 23.4 72 3.8 SE 24 30 13 16 1012.5 - 0.0
26/03:30pm 29.0 29.7 23.0 70 4.1 SE 24 28 13 15 1012.3 - 0.0
26/03:00pm 29.2 29.6 22.4 66 4.6 SE 24 28 13 15 1012.4 1012.4 0.0
26/02:30pm 28.6 29.3 23.0 71 3.8 SE 24 30 13 16 1012.6 - 0.0
26/02:00pm 29.3 29.8 22.7 67 4.5 ESE 24 30 13 16 1012.7 - 0.0
26/01:30pm 29.3 29.5 22.7 67 4.5 SE 26 32 14 17 1013.0 - 0.0
26/01:00pm 29.5 30.2 22.9 67 4.5 SE 24 30 13 16 1013.3 - 0.0
26/12:30pm 28.9 29.3 22.4 68 4.4 SE 24 28 13 15 1013.9 - 0.0
26/12:00pm 28.8 29.3 22.6 69 4.2 SE 24 28 13 15 1014.3 1014.3 0.0
26/11:30am 29.6 30.3 23.0 67 4.5 SE 24 28 13 15 1014.7 - 0.0
26/11:00am 29.4 30.0 22.8 67 4.5 SE 24 28 13 15 1015.0 - 0.0
26/10:30am 29.3 29.8 22.7 67 4.5 ESE 24 28 13 15 1015.2 - 0.0
26/10:00am 29.4 30.1 23.0 68 4.4 SE 24 30 13 16 1015.2 - 0.0
26/09:30am 29.1 29.4 22.3 66 4.6 SE 24 28 13 15 1015.2 - 0.0
26/09:00am 28.9 29.7 22.4 68 4.4 ESE 22 26 12 14 1015.3 1015.3 0.0
26/08:30am 28.6 28.9 22.2 68 4.3 ESE 24 30 13 16 1015.2 - 0.0
26/08:00am 28.4 29.1 23.0 72 3.7 SE 24 28 13 15 1015.1 - 0.0
26/07:30am 27.6 28.0 22.4 73 3.5 ESE 24 28 13 15 1014.9 - 0.0
26/07:00am 27.5 27.4 22.3 73 3.5 ESE 26 30 14 16 1014.6 - 0.0
26/06:30am 26.8 26.7 22.2 76 3.1 ESE 26 30 14 16 1014.4 - 0.0
26/06:00am 26.6 26.4 22.1 76 3.0 ESE 26 30 14 16 1014.0 1014.0 0.0
26/05:30am 26.8 26.6 22.8 79 2.7 ESE 28 32 15 17 1013.8 - 0.0
26/05:00am 26.7 26.4 22.6 78 2.8 E 28 33 15 18 1013.7 - 0.0
26/04:30am 26.7 25.5 22.2 76 3.0 ESE 32 35 17 19 1013.3 - 0.0
26/04:00am 26.8 25.6 22.3 76 3.0 ESE 32 35 17 19 1013.2 - 0.0
26/03:30am 26.9 25.8 22.5 77 3.0 ESE 32 35 17 19 1013.1 - 0.0
26/03:00am 27.0 26.9 22.9 78 2.8 ESE 28 32 15 17 1013.2 1013.2 0.0
26/02:30am 26.9 27.2 22.9 79 2.7 SE 26 32 14 17 1013.3 - 0.0
26/02:00am 26.8 27.1 23.0 79 2.6 SE 26 30 14 16 1013.5 - 0.0
26/01:30am 26.5 25.4 22.5 78 2.7 SE 32 39 17 21 1013.7 - 0.0
26/01:00am 26.9 27.0 22.5 77 3.0 ESE 26 30 14 16 1014.1 - 0.0
26/12:30am 26.9 26.7 22.8 78 2.8 SE 28 32 15 17 1014.4 - 0.0
26/12:00am 27.0 26.5 22.2 75 3.2 SE 28 32 15 17 1014.6 1014.6 0.0
 
Date/Time
EST
Temp
°C
App
Temp
°C
Dew
Point
Rel
Hum
%
Delta-T
°C
Wind Press
QNH
hPa
Press
MSL
hPa
Rain
since 9 am
mm
Dir
 
Spd
km/h
Gust
km/h
Spd
kts
Gust
kts
25/11:30pm 27.1 26.1 22.0 73 3.4 SE 30 35 16 19 1014.8 - 0.0
25/11:00pm 26.8 27.5 23.7 83 2.1 SE 26 30 14 16 1015.1 - 0.0
25/10:30pm 27.2 26.7 22.8 77 3.0 SE 30 35 16 19 1015.1 - 0.0
25/10:00pm 27.1 26.9 22.8 77 2.9 SE 28 30 15 16 1015.1 - 0.0
25/09:30pm 27.2 26.9 22.6 76 3.1 SE 28 32 15 17 1015.1 - 0.0
25/09:00pm 27.0 27.8 23.2 80 2.6 SE 24 30 13 16 1014.9 1014.9 0.0
25/08:30pm 27.0 26.9 22.9 78 2.8 SE 28 32 15 17 1014.7 - 0.0
25/08:00pm 27.1 28.4 23.4 80 2.5 SE 22 26 12 14 1014.2 - 0.0
25/07:30pm 27.0 27.4 23.2 80 2.6 SE 26 30 14 16 1014.1 - 0.0
25/07:00pm 26.9 28.1 23.2 80 2.5 SE 22 28 12 15 1013.7 - 0.0
25/06:30pm 27.1 28.6 23.1 79 2.7 SE 20 24 11 13 1013.4 - 0.0
25/06:00pm 27.0 28.2 23.8 82 2.2 SSE 24 28 13 15 1013.0 1013.0 0.0
25/05:30pm 27.3 28.9 23.2 78 2.8 SE 20 24 11 13 1012.7 - 0.0
25/05:00pm 27.5 28.5 22.9 76 3.1 SE 22 26 12 14 1012.5 - 0.0
25/04:30pm 27.7 28.9 23.2 76 3.1 ESE 22 24 12 13 1012.4 - 0.0
25/04:00pm 27.3 30.2 23.8 81 2.4 S 15 20 8 11 1012.4 - 0.0
25/03:30pm 29.5 32.6 24.2 73 3.7 SE 15 20 8 11 1012.2 - 0.0
25/03:00pm 28.5 30.9 23.7 75 3.3 SE 17 20 9 11 1012.2 1012.2 0.0
25/02:30pm 29.3 31.2 23.8 72 3.8 SE 20 24 11 13 1012.4 - 0.0

Other Formats:

Comma delimited format used in spreadsheet applications
http://www.bom.gov.au/fwo/IDQ60801/IDQ60801.94299.axf

JavaScript Object Notation format (JSON) in row-major order
http://www.bom.gov.au/fwo/IDQ60801/IDQ60801.94299.json